createdAt,value
2023-04-30T00:00:00.215Z,9.40
2023-04-30T00:02:27.038Z,9.77
2023-04-30T00:04:53.765Z,9.25
2023-04-30T00:07:20.471Z,9.73
2023-04-30T00:09:47.148Z,8.88
2023-04-30T00:12:13.737Z,15.25
2023-04-30T00:14:40.411Z,12.38
2023-04-30T00:17:07.043Z,15.07
2023-04-30T00:19:33.635Z,9.93
2023-04-30T00:22:01.632Z,13.30
2023-04-30T00:24:28.674Z,9.40
2023-04-30T00:26:55.334Z,11.45
2023-04-30T00:29:21.892Z,10.13
2023-04-30T00:31:49.035Z,14.98
2023-04-30T00:34:15.821Z,16.38
2023-04-30T00:36:42.495Z,11.43
2023-04-30T00:39:09.103Z,16.08
2023-04-30T00:41:36.185Z,12.90
2023-04-30T00:44:02.998Z,13.07
2023-04-30T00:46:29.731Z,11.88
2023-04-30T00:48:56.618Z,12.00
2023-04-30T00:51:23.703Z,11.05
2023-04-30T00:53:50.311Z,14.65
2023-04-30T00:56:17.119Z,13.27
2023-04-30T00:58:43.778Z,13.05
2023-04-30T01:01:10.618Z,12.95
2023-04-30T01:03:37.451Z,12.50
2023-04-30T01:06:04.296Z,11.63
2023-04-30T01:08:31.954Z,11.65
2023-04-30T01:11:17.467Z,18.73
2023-04-30T01:14:04.289Z,12.10
2023-04-30T01:16:36.402Z,15.77
2023-04-30T01:19:11.807Z,11.77
2023-04-30T01:21:42.754Z,14.15
2023-04-30T01:24:25.518Z,12.48
2023-04-30T01:27:25.008Z,11.02
2023-04-30T01:29:54.890Z,11.18
2023-04-30T01:32:21.722Z,12.90
2023-04-30T01:34:48.470Z,14.32
2023-04-30T01:38:04.417Z,11.40
2023-04-30T01:40:42.746Z,12.30
2023-04-30T01:43:32.499Z,9.55
2023-04-30T01:46:08.531Z,15.23
2023-04-30T01:49:32.455Z,11.05
2023-04-30T01:52:41.915Z,11.10
2023-04-30T01:55:14.524Z,11.70
2023-04-30T01:57:51.018Z,11.27
2023-04-30T02:00:17.990Z,13.90
2023-04-30T02:02:44.817Z,12.35
2023-04-30T02:05:11.578Z,11.60
2023-04-30T02:07:41.355Z,14.90
2023-04-30T02:10:08.883Z,11.70
2023-04-30T02:12:36.576Z,13.60
2023-04-30T02:15:04.772Z,14.35
2023-04-30T02:17:32.208Z,18.70
2023-04-30T02:19:59.790Z,11.00
2023-04-30T02:22:26.790Z,11.43
2023-04-30T02:24:55.662Z,11.73
2023-04-30T02:27:24.678Z,11.07
2023-04-30T02:29:51.703Z,13.15
2023-04-30T02:32:18.532Z,12.07
2023-04-30T02:34:45.353Z,20.42
2023-04-30T02:37:12.071Z,15.80
2023-04-30T02:39:38.678Z,11.05
2023-04-30T02:42:06.752Z,10.68
2023-04-30T02:44:35.438Z,12.07
2023-04-30T02:47:02.528Z,11.40
2023-04-30T02:49:29.667Z,11.73
2023-04-30T02:51:56.317Z,11.07
2023-04-30T02:54:23.103Z,11.68
2023-04-30T02:56:49.779Z,15.20
2023-04-30T02:59:16.448Z,11.60
2023-04-30T03:01:43.165Z,9.75
2023-04-30T03:04:09.805Z,10.70
2023-04-30T03:06:36.792Z,10.52
2023-04-30T03:09:03.661Z,10.60
2023-04-30T03:11:30.323Z,9.75
2023-04-30T03:13:56.974Z,9.40
2023-04-30T03:16:23.685Z,12.02
2023-04-30T03:18:50.385Z,12.75
2023-04-30T03:21:17.183Z,11.18
2023-04-30T03:23:43.810Z,12.98
2023-04-30T03:26:10.503Z,10.02
2023-04-30T03:28:37.160Z,13.55
2023-04-30T03:31:06.658Z,9.50
2023-04-30T03:33:33.578Z,12.45
2023-04-30T03:36:00.266Z,10.27
2023-04-30T03:38:26.881Z,9.32
2023-04-30T03:40:53.723Z,9.82
2023-04-30T03:43:20.834Z,9.02
2023-04-30T03:45:47.523Z,11.73
2023-04-30T03:48:14.229Z,10.18
2023-04-30T03:50:40.960Z,13.32
2023-04-30T03:53:07.582Z,8.73
2023-04-30T03:55:34.515Z,11.57
2023-04-30T03:58:01.449Z,11.75
2023-04-30T04:00:28.155Z,12.30
2023-04-30T04:02:55.172Z,14.63
2023-04-30T04:05:21.881Z,10.85
2023-04-30T04:07:48.682Z,11.13
2023-04-30T04:10:15.335Z,13.00
2023-04-30T04:12:41.933Z,12.25
2023-04-30T04:15:09.371Z,10.55
2023-04-30T04:17:36.082Z,13.25
2023-04-30T04:20:06.008Z,9.55
2023-04-30T04:22:32.584Z,8.82
2023-04-30T04:24:59.234Z,11.00
2023-04-30T04:27:25.857Z,15.52
2023-04-30T04:29:52.990Z,9.75
2023-04-30T04:32:19.784Z,13.88
2023-04-30T04:34:47.296Z,11.18
2023-04-30T04:37:14.222Z,11.65
2023-04-30T04:39:40.985Z,7.93
2023-04-30T04:42:07.915Z,9.63
2023-04-30T04:44:34.558Z,7.75
2023-04-30T04:47:03.302Z,9.13
2023-04-30T04:49:30.275Z,9.93
2023-04-30T04:51:56.875Z,8.68
2023-04-30T04:54:23.509Z,11.45
2023-04-30T04:56:50.129Z,11.80
2023-04-30T04:59:17.581Z,9.60
2023-04-30T05:01:44.338Z,11.45
2023-04-30T05:04:10.995Z,10.32
2023-04-30T05:06:37.767Z,9.15
2023-04-30T05:09:07.213Z,12.57
2023-04-30T05:11:33.839Z,12.80
2023-04-30T05:14:00.510Z,11.50
2023-04-30T05:16:27.213Z,9.38
2023-04-30T05:18:53.894Z,8.02
2023-04-30T05:21:20.542Z,10.07
2023-04-30T05:23:47.305Z,9.73
2023-04-30T05:26:13.959Z,10.65
2023-04-30T05:28:41.150Z,7.93
2023-04-30T05:31:07.778Z,8.57
2023-04-30T05:33:34.596Z,8.32
2023-04-30T05:36:01.253Z,9.82
2023-04-30T05:38:28.088Z,11.68
2023-04-30T05:40:54.651Z,12.00
2023-04-30T05:43:21.371Z,14.75
2023-04-30T05:45:48.024Z,12.07
2023-04-30T05:48:14.746Z,9.63
2023-04-30T05:50:41.429Z,8.27
2023-04-30T05:53:08.662Z,10.75
2023-04-30T05:55:35.318Z,8.57
2023-04-30T05:58:02.012Z,10.43
2023-04-30T06:00:28.737Z,12.48
2023-04-30T06:02:55.478Z,11.50
2023-04-30T06:05:22.154Z,12.77
2023-04-30T06:07:48.831Z,8.77
2023-04-30T06:10:15.630Z,10.93
2023-04-30T06:12:42.229Z,13.05
2023-04-30T06:15:09.206Z,10.55
2023-04-30T06:17:35.945Z,11.45
2023-04-30T06:20:06.830Z,9.43
2023-04-30T06:22:34.576Z,10.35
2023-04-30T06:25:01.471Z,9.05
2023-04-30T06:27:28.080Z,10.82
2023-04-30T06:29:55.377Z,10.02
2023-04-30T06:32:22.155Z,12.65
2023-04-30T06:34:48.889Z,8.98
2023-04-30T06:37:15.561Z,6.50
2023-04-30T06:39:42.175Z,10.45
2023-04-30T06:42:08.741Z,6.47
2023-04-30T06:44:35.405Z,11.27
2023-04-30T06:47:02.451Z,6.00
2023-04-30T06:49:29.092Z,8.02
2023-04-30T06:51:58.454Z,6.88
2023-04-30T06:54:26.771Z,8.30
2023-04-30T06:56:53.895Z,7.90
2023-04-30T06:59:20.863Z,7.22
2023-04-30T07:01:47.529Z,13.13
2023-04-30T07:04:14.186Z,8.35
2023-04-30T07:06:40.977Z,10.60
2023-04-30T07:09:07.639Z,9.85
2023-04-30T07:11:34.464Z,11.65
2023-04-30T07:14:01.171Z,6.97
2023-04-30T07:16:28.071Z,11.70
2023-04-30T07:18:54.880Z,10.40
2023-04-30T07:21:21.935Z,9.18
2023-04-30T07:23:51.486Z,9.75
2023-04-30T07:26:18.299Z,10.65
2023-04-30T07:28:48.121Z,9.90
2023-04-30T07:31:14.822Z,15.40
2023-04-30T07:33:42.328Z,12.40
2023-04-30T07:36:09.014Z,7.68
2023-04-30T07:38:35.662Z,8.45
2023-04-30T07:41:03.109Z,9.00
2023-04-30T07:43:31.835Z,9.40
2023-04-30T07:45:59.309Z,7.63
2023-04-30T07:48:26.081Z,9.90
2023-04-30T07:50:53.126Z,8.77
2023-04-30T07:53:19.849Z,14.52
2023-04-30T07:55:46.598Z,8.25
2023-04-30T07:58:13.239Z,9.23
2023-04-30T08:00:41.104Z,10.43
2023-04-30T08:03:08.335Z,7.95
2023-04-30T08:05:35.114Z,9.35
2023-04-30T08:08:01.938Z,9.05
2023-04-30T08:10:28.582Z,6.18
2023-04-30T08:12:55.321Z,6.85
2023-04-30T08:15:21.975Z,7.53
2023-04-30T08:17:55.059Z,8.75
2023-04-30T08:20:23.509Z,9.25
2023-04-30T08:22:51.077Z,5.43
2023-04-30T08:25:17.826Z,10.05
2023-04-30T08:27:44.819Z,9.82
2023-04-30T08:30:11.667Z,7.85
2023-04-30T08:32:38.662Z,9.85
2023-04-30T08:35:06.299Z,9.50
2023-04-30T08:37:33.777Z,8.15
2023-04-30T08:40:00.969Z,8.23
2023-04-30T08:42:32.340Z,10.68
2023-04-30T08:45:01.644Z,9.57
2023-04-30T08:47:28.554Z,8.93
2023-04-30T08:49:55.939Z,5.53
2023-04-30T08:52:30.569Z,11.52
2023-04-30T08:57:25.175Z,10.63
2023-04-30T08:59:51.842Z,8.73
2023-04-30T09:02:18.613Z,10.70
2023-04-30T09:04:46.117Z,5.35
2023-04-30T09:07:14.533Z,5.18
2023-04-30T09:09:41.252Z,6.80
2023-04-30T09:12:19.743Z,8.68
2023-04-30T09:15:02.064Z,9.15
2023-04-30T09:17:29.314Z,6.72
2023-04-30T09:20:06.981Z,7.13
2023-04-30T09:22:35.077Z,7.32
2023-04-30T09:25:01.706Z,5.25
2023-04-30T09:27:28.406Z,5.38
2023-04-30T09:29:56.590Z,8.13
2023-04-30T09:32:23.469Z,6.38
2023-04-30T09:34:50.461Z,5.00
2023-04-30T09:37:17.256Z,6.25
2023-04-30T09:39:53.957Z,5.20
2023-04-30T09:42:21.213Z,6.90
2023-04-30T09:44:48.553Z,6.40
2023-04-30T09:47:20.548Z,4.80
2023-04-30T09:49:54.436Z,7.70
2023-04-30T09:52:21.593Z,8.85
2023-04-30T09:54:54.293Z,10.27
2023-04-30T09:57:24.272Z,6.00
2023-04-30T09:59:53.748Z,7.57
2023-04-30T10:02:23.513Z,10.20
2023-04-30T10:04:58.082Z,4.90
2023-04-30T10:10:06.638Z,6.53
2023-04-30T10:12:43.227Z,6.13
2023-04-30T10:15:23.175Z,10.82
2023-04-30T10:18:29.015Z,5.63
2023-04-30T10:20:57.190Z,3.90
2023-04-30T10:23:24.452Z,3.53
2023-04-30T10:25:51.829Z,4.40
2023-04-30T10:28:23.135Z,5.38
2023-04-30T10:30:52.320Z,5.75
2023-04-30T10:33:33.077Z,4.22
2023-04-30T10:36:04.468Z,3.78
2023-04-30T10:38:33.069Z,5.68
2023-04-30T10:41:04.495Z,5.50
2023-04-30T10:43:31.880Z,4.63
2023-04-30T10:45:59.751Z,4.68
2023-04-30T10:48:27.588Z,5.65
2023-04-30T10:51:01.394Z,4.03
2023-04-30T10:53:31.888Z,4.13
2023-04-30T10:56:08.825Z,4.35
2023-04-30T10:58:38.749Z,5.18
2023-04-30T11:01:11.479Z,5.13
2023-04-30T11:03:40.114Z,5.28
2023-04-30T11:06:14.970Z,5.32
2023-04-30T11:08:46.433Z,3.55
2023-04-30T11:11:23.879Z,4.22
2023-04-30T11:14:03.057Z,3.80
2023-04-30T11:16:35.108Z,3.50
2023-04-30T11:19:13.487Z,3.67
2023-04-30T11:21:41.265Z,2.63
2023-04-30T11:24:08.187Z,3.42
2023-04-30T11:27:03.663Z,3.42
2023-04-30T11:29:32.223Z,4.28
2023-04-30T11:32:01.707Z,3.92
2023-04-30T11:34:29.532Z,9.35
2023-04-30T11:37:00.957Z,4.20
2023-04-30T11:39:29.634Z,5.15
2023-04-30T11:41:56.310Z,2.60
2023-04-30T11:44:29.069Z,3.75
2023-04-30T11:46:56.106Z,3.15
2023-04-30T11:49:24.677Z,3.50
2023-04-30T11:51:52.604Z,2.70
2023-04-30T11:54:19.850Z,5.13
2023-04-30T11:56:50.386Z,3.67
2023-04-30T11:59:19.100Z,4.55
2023-04-30T12:01:45.940Z,4.88
2023-04-30T12:04:13.676Z,4.18
2023-04-30T12:06:41.337Z,3.75
2023-04-30T12:09:09.410Z,2.70
2023-04-30T12:11:38.684Z,3.08
2023-04-30T12:14:07.960Z,4.90
2023-04-30T12:16:45.962Z,5.15
2023-04-30T12:19:13.168Z,4.03
2023-04-30T12:21:46.471Z,2.50
2023-04-30T12:24:14.156Z,2.60
2023-04-30T12:26:42.029Z,3.90
2023-04-30T12:29:14.340Z,4.55
2023-04-30T12:31:42.537Z,3.97
2023-04-30T12:34:13.092Z,6.90
2023-04-30T12:36:46.362Z,5.80
2023-04-30T12:39:18.343Z,2.47
2023-04-30T12:41:47.517Z,3.47
2023-04-30T12:44:25.992Z,2.33
2023-04-30T12:46:57.301Z,3.92
2023-04-30T12:49:27.275Z,3.47
2023-04-30T12:51:59.647Z,3.80
2023-04-30T12:54:32.414Z,5.15
2023-04-30T12:57:03.623Z,3.38
2023-04-30T12:59:31.883Z,2.33
2023-04-30T13:02:13.266Z,6.07
2023-04-30T13:04:42.958Z,2.05
2023-04-30T13:07:10.514Z,2.13
2023-04-30T13:09:38.284Z,4.60
2023-04-30T13:12:06.574Z,4.03
2023-04-30T13:14:33.583Z,3.72
2023-04-30T13:17:01.363Z,3.88
2023-04-30T13:19:30.204Z,3.25
2023-04-30T13:22:00.851Z,5.43
2023-04-30T13:24:27.957Z,3.28
2023-04-30T13:26:54.632Z,4.70
2023-04-30T13:29:21.228Z,3.42
2023-04-30T13:31:50.893Z,2.75
2023-04-30T13:34:17.644Z,3.47
2023-04-30T13:36:45.491Z,2.45
2023-04-30T13:39:12.129Z,1.48
2023-04-30T13:41:38.823Z,2.42
2023-04-30T13:44:05.918Z,3.13
2023-04-30T13:46:32.593Z,2.42
2023-04-30T13:49:00.673Z,3.47
2023-04-30T13:51:27.842Z,2.65
2023-04-30T13:53:54.574Z,1.88
2023-04-30T13:56:21.445Z,3.33
2023-04-30T13:58:49.192Z,1.60
2023-04-30T14:01:16.164Z,4.07
2023-04-30T14:03:42.841Z,2.08
2023-04-30T14:06:10.148Z,2.63
2023-04-30T14:08:36.967Z,2.67
2023-04-30T14:11:03.569Z,3.63
2023-04-30T14:13:31.217Z,5.65
2023-04-30T14:15:58.145Z,4.78
2023-04-30T14:18:25.377Z,3.13
2023-04-30T14:20:52.034Z,2.53
2023-04-30T14:23:18.683Z,1.23
2023-04-30T14:25:45.343Z,2.10
2023-04-30T14:28:12.160Z,5.35
2023-04-30T14:30:38.863Z,2.78
2023-04-30T14:33:05.586Z,1.55
2023-04-30T14:35:33.599Z,2.25
2023-04-30T14:38:00.373Z,3.58
2023-04-30T14:40:27.160Z,1.92
2023-04-30T14:42:54.193Z,2.40
2023-04-30T14:45:20.886Z,1.48
2023-04-30T14:47:47.886Z,4.35
2023-04-30T14:50:14.976Z,2.30
2023-04-30T14:52:42.092Z,3.03
2023-04-30T14:55:11.250Z,3.40
2023-04-30T14:57:37.954Z,2.45
2023-04-30T15:00:06.743Z,2.05
2023-04-30T15:02:35.044Z,2.00
2023-04-30T15:05:04.292Z,2.28
2023-04-30T15:07:32.693Z,4.30
2023-04-30T15:10:03.662Z,3.45
2023-04-30T15:12:39.191Z,1.38
2023-04-30T15:15:07.056Z,2.78
2023-04-30T15:17:39.748Z,1.05
2023-04-30T15:20:07.747Z,1.25
2023-04-30T15:22:34.561Z,4.88
2023-04-30T15:25:03.899Z,2.58
2023-04-30T15:27:31.957Z,5.68
2023-04-30T15:30:00.479Z,1.05
2023-04-30T15:32:27.631Z,3.13
2023-04-30T15:34:55.424Z,2.78
2023-04-30T15:37:22.259Z,1.08
2023-04-30T15:39:49.906Z,8.98
2023-04-30T15:42:16.845Z,2.92
2023-04-30T15:44:43.516Z,1.27
2023-04-30T15:47:10.769Z,1.23
2023-04-30T15:49:37.409Z,2.70
2023-04-30T15:52:04.222Z,2.00
2023-04-30T15:54:30.932Z,3.35
2023-04-30T15:56:58.411Z,1.95
2023-04-30T15:59:25.109Z,1.58
2023-04-30T16:01:51.744Z,1.30
2023-04-30T16:04:18.531Z,1.73
2023-04-30T16:06:45.363Z,2.70
2023-04-30T16:09:12.661Z,2.17
2023-04-30T16:11:40.195Z,2.17
2023-04-30T16:14:07.272Z,2.72
2023-04-30T16:16:33.995Z,3.28
2023-04-30T16:19:00.787Z,2.42
2023-04-30T16:21:29.223Z,2.10
2023-04-30T16:23:55.865Z,1.35
2023-04-30T16:26:22.789Z,4.88
2023-04-30T16:28:49.644Z,1.95
2023-04-30T16:31:16.493Z,2.17
2023-04-30T16:33:43.342Z,4.18
2023-04-30T16:36:11.007Z,2.55
2023-04-30T16:38:37.669Z,1.40
2023-04-30T16:41:04.374Z,1.65
2023-04-30T16:43:31.099Z,1.30
2023-04-30T16:45:58.254Z,1.13
2023-04-30T16:48:24.957Z,4.70
2023-04-30T16:50:51.714Z,2.22
2023-04-30T16:53:18.616Z,1.95
2023-04-30T16:55:46.608Z,3.05
2023-04-30T16:58:13.216Z,1.38
2023-04-30T17:00:46.446Z,0.93
2023-04-30T17:03:13.669Z,2.03
2023-04-30T17:05:40.401Z,4.53
2023-04-30T17:08:07.312Z,1.83
2023-04-30T17:10:33.987Z,2.00
2023-04-30T17:13:03.948Z,1.38
2023-04-30T17:15:30.846Z,2.53
2023-04-30T17:17:57.999Z,1.75
2023-04-30T17:20:24.727Z,1.27
2023-04-30T17:22:53.206Z,1.45
2023-04-30T17:25:19.903Z,2.20
2023-04-30T17:27:47.291Z,3.83
2023-04-30T17:30:14.950Z,3.10
2023-04-30T17:32:43.512Z,1.50
2023-04-30T17:35:11.489Z,1.58
2023-04-30T17:37:38.341Z,1.38
2023-04-30T17:40:05.654Z,1.75
2023-04-30T17:42:34.039Z,3.45
2023-04-30T17:45:00.748Z,2.47
2023-04-30T17:47:27.552Z,3.65
2023-04-30T17:49:54.552Z,2.03
2023-04-30T17:52:21.352Z,1.85
2023-04-30T17:54:48.111Z,0.73
2023-04-30T17:57:14.856Z,1.50
2023-04-30T17:59:41.643Z,1.98
2023-04-30T18:02:08.457Z,3.25
2023-04-30T18:04:35.117Z,3.08
2023-04-30T18:07:01.721Z,1.98
2023-04-30T18:09:28.371Z,1.10
2023-04-30T18:11:55.430Z,2.08
2023-04-30T18:14:22.425Z,2.65
2023-04-30T18:16:49.975Z,2.28
2023-04-30T18:19:17.608Z,1.83
2023-04-30T18:21:44.331Z,4.03
2023-04-30T18:24:11.162Z,1.48
2023-04-30T18:26:37.802Z,3.38
2023-04-30T18:29:05.147Z,2.80
2023-04-30T18:31:32.194Z,2.88
2023-04-30T18:33:58.866Z,2.67
2023-04-30T18:36:25.630Z,4.20
2023-04-30T18:38:52.383Z,4.00
2023-04-30T18:41:21.027Z,3.65
2023-04-30T18:43:49.251Z,2.05
2023-04-30T18:46:16.659Z,2.08
2023-04-30T18:48:43.343Z,2.53
2023-04-30T18:51:10.007Z,12.38
2023-04-30T18:53:36.732Z,3.03
2023-04-30T18:56:03.514Z,1.20
2023-04-30T18:58:30.244Z,2.75
2023-04-30T19:00:58.059Z,2.88
2023-04-30T19:03:25.096Z,1.35
2023-04-30T19:05:58.931Z,3.25
2023-04-30T19:08:25.944Z,1.02
2023-04-30T19:10:53.245Z,1.35
2023-04-30T19:13:19.909Z,3.30
2023-04-30T19:15:48.631Z,2.58
2023-04-30T19:18:16.692Z,2.88
2023-04-30T19:20:43.568Z,1.25
2023-04-30T19:23:10.520Z,2.47
2023-04-30T19:25:38.957Z,1.70
2023-04-30T19:28:05.850Z,2.13
2023-04-30T19:30:32.465Z,1.80
2023-04-30T19:32:59.133Z,1.48
2023-04-30T19:35:25.808Z,0.40
2023-04-30T19:37:52.529Z,1.80
2023-04-30T19:40:19.403Z,2.90
2023-04-30T19:42:47.610Z,3.10
2023-04-30T19:45:14.510Z,3.45
2023-04-30T19:47:41.319Z,2.13
2023-04-30T19:50:08.811Z,1.52
2023-04-30T19:52:35.559Z,4.28
2023-04-30T19:55:02.293Z,3.97
2023-04-30T19:57:32.994Z,2.05
2023-04-30T19:59:59.895Z,0.60
2023-04-30T20:02:26.520Z,1.08
2023-04-30T20:04:53.303Z,2.60
2023-04-30T20:07:20.494Z,2.45
2023-04-30T20:09:47.082Z,4.38
2023-04-30T20:12:13.829Z,2.15
2023-04-30T20:14:40.881Z,3.78
2023-04-30T20:17:07.641Z,1.17
2023-04-30T20:19:34.463Z,3.13
2023-04-30T20:22:02.825Z,2.22
2023-04-30T20:24:29.476Z,2.15
2023-04-30T20:26:56.856Z,2.70
2023-04-30T20:29:23.638Z,3.95
2023-04-30T20:31:50.437Z,4.40
2023-04-30T20:34:17.091Z,6.03
2023-04-30T20:36:43.765Z,6.10
2023-04-30T20:39:10.383Z,4.57
2023-04-30T20:41:37.655Z,3.67
2023-04-30T20:44:05.679Z,4.07
2023-04-30T20:46:33.153Z,4.07
2023-04-30T20:49:04.230Z,2.10
2023-04-30T20:51:31.595Z,6.05
2023-04-30T20:53:58.171Z,2.25
2023-04-30T20:56:24.883Z,2.03
2023-04-30T20:58:51.558Z,1.90
2023-04-30T21:01:18.293Z,1.80
2023-04-30T21:03:44.924Z,1.67
2023-04-30T21:06:11.885Z,3.58
2023-04-30T21:08:38.513Z,3.22
2023-04-30T21:11:05.095Z,3.97
2023-04-30T21:13:32.670Z,3.00
2023-04-30T21:15:59.373Z,3.10
2023-04-30T21:18:28.937Z,2.25
2023-04-30T21:21:02.610Z,1.27
2023-04-30T21:23:29.939Z,3.65
2023-04-30T21:25:56.838Z,4.30
2023-04-30T21:28:23.582Z,3.25
2023-04-30T21:30:50.268Z,1.20
2023-04-30T21:33:17.040Z,4.25
2023-04-30T21:35:43.751Z,4.03
2023-04-30T21:38:11.692Z,2.95
2023-04-30T21:40:38.478Z,4.07
2023-04-30T21:43:05.153Z,4.05
2023-04-30T21:45:34.891Z,2.40
2023-04-30T21:48:01.578Z,3.00
2023-04-30T21:50:28.283Z,5.22
2023-04-30T21:52:55.028Z,5.07
2023-04-30T21:55:21.943Z,5.00
2023-04-30T21:57:51.086Z,2.50
2023-04-30T22:00:18.652Z,4.72
2023-04-30T22:02:45.381Z,6.03
2023-04-30T22:05:12.994Z,3.50
2023-04-30T22:07:40.648Z,3.03
2023-04-30T22:10:07.858Z,2.53
2023-04-30T22:12:35.118Z,1.98
2023-04-30T22:15:05.020Z,3.58
2023-04-30T22:17:32.640Z,4.35
2023-04-30T22:19:59.361Z,5.10
2023-04-30T22:22:26.243Z,3.30
2023-04-30T22:24:52.990Z,2.58
2023-04-30T22:27:19.642Z,3.10
2023-04-30T22:29:49.653Z,4.68
2023-04-30T22:32:16.760Z,3.33
2023-04-30T22:34:44.030Z,5.10
2023-04-30T22:37:10.898Z,5.63
2023-04-30T22:39:38.166Z,3.58
2023-04-30T22:42:05.156Z,5.03
2023-04-30T22:44:32.194Z,3.22
2023-04-30T22:46:59.246Z,7.72
2023-04-30T22:49:31.267Z,5.68
2023-04-30T22:51:59.147Z,2.25
2023-04-30T22:54:25.980Z,4.22
2023-04-30T22:56:52.656Z,4.63
2023-04-30T22:59:19.323Z,3.95
2023-04-30T23:01:46.038Z,4.97
2023-04-30T23:04:13.692Z,2.72
2023-04-30T23:06:41.379Z,3.10
2023-04-30T23:09:08.215Z,3.50
2023-04-30T23:11:34.832Z,3.45
2023-04-30T23:14:01.498Z,4.85
2023-04-30T23:16:28.151Z,5.85
2023-04-30T23:18:54.802Z,4.18
2023-04-30T23:21:21.881Z,3.22
2023-04-30T23:23:48.659Z,2.75
2023-04-30T23:26:15.445Z,4.30
2023-04-30T23:28:42.115Z,3.05
2023-04-30T23:31:08.679Z,3.45
2023-04-30T23:33:35.293Z,8.00
2023-04-30T23:36:01.964Z,4.65
2023-04-30T23:38:28.571Z,4.95
2023-04-30T23:40:56.435Z,3.78
2023-04-30T23:43:25.171Z,7.25
2023-04-30T23:45:52.301Z,4.57
2023-04-30T23:48:19.008Z,3.10
2023-04-30T23:50:46.197Z,4.65
2023-04-30T23:53:14.018Z,2.65
2023-04-30T23:55:44.450Z,5.07
2023-04-30T23:58:11.096Z,2.67
